KNMI Weerbulletins

Hier vind u de KMNI verwachtingen en de waarnemingen

Bron: KNMI website
Laatste update op 21-06-2018 om 12:31
ZCZC
FBNL50 EHDB 210940
WEERBULLETIN VOOR DE LUCHTVAART - AMD
.
GELDIG 210900/211500 UTC
.
SITUATIE: TUSSEN EEN HOGEDRUKGEBIED WEST VAN IERLAND EN EEN
LAGEDRUKGEBIED BOVEN ZWEDEN VOERT EEN NOORDWESTELIJKE STROMING
MARITIEM POLAIRE LUCHT AAN. DE OPBOUW IS ONSTABIEL TOT CA. 8000 VT,
IN DE NOORDELIJKE HELFT TOT BOVEN FL100.
.
SIGNIFICANT WEER: IN DE NOORDELIJKE HELFT GEISOLEERDE, IN DE EERSTE
HELFT VAN DE PERIODE  LOKAAL OOK GECLUSTERDE, LICHTE TOT MATIGE
REGENBUIEN. IN HET +++ NOORDOOSTEN EERST LOKAAL OOK ONWEER +++.
ELDERS EEN ENKELE LICHTE GEISOLEERDE REGENBUI. VOORAL IN DE
KUSTGEBIEDEN MATIGE TURBULENTIE.
.
WIND: NOORDWEST 15-20 KN, IN DE KUSTPROVINCIES 18-24 KN, AAN DE KUST
EN BOVEN HET IJSSELMEER 24-28 KN. KANS OP UITSCHIETERS VAN 30-35 KN
IN HET NOORDEN TOT CA. 25 KN ELDERS.
.
BEWOLKING: SCT/BKN CU/SC 2500-5000 VT, TOPPEN TOT 6000 VT. IN EEN BUI
IN HET ZUIDEN FEW TCU 2500-3000 VT, TOPPEN ROND 8000 VT. IN HET
NOORDEN IN EEN BUI SCT, LOKAAL MOGELIJK BKN, CB ROND 2000 VT, TOPPEN
BOVEN FL100.
.
ZICHT: MEER DAN 10 KM. IN EEN BUI 5-8 KM, IN MATIGE BUIEN 3-5 KM.
.
NULGRADEN NIVEAU: FL050-FL060, IN HET ZUIDOOSTEN EERST FL090-FL100.
.
HOOGTEWINDEN EN TEMPERATUREN:
       09 UTC:       15 UTC:
0500VT 300/25    +13 320/20-25 +13
1500VT 300/30    +10 320/25    +10
3000VT 300/30    +06 320/25-30 +06
FL 050 290/35    +01 320/25-30 +01
FL 100 260/40-55 -03 320/30-35 -08
OM 09 UTC OP FL100 HOOGSTE WINDSNELHEDEN IN HET ZUIDEN EN MIDDEN.
.
THERMIEK: MATIG EN VERWAAID, VOORAL IN HET NOORDEN EN WESTEN ZEER
VERWAAID. VOORAL IN HET NOORDEN VERSTOORD DOOR BUIEN.
.
MAX. TEMPERATUUR: VAN 15 GRADEN CELSIUS IN HET NOORDEN TOT 19 GRADEN
CELSIUS IN HET ZUIDOOSTEN.
.
VOORUITZICHTEN VOOR DE PERIODE VAN 211500/212100: FREQUENTIE EN
INTENSITEIT VAN DE BUIEN IN HET NOORDEN NEMEN IN DE TWEEDE HELFT VAN
DE PERIODE TOE.
.
DAGLICHTPERIODE: 03.05 TOT 20.19 UTC.=
NNNN
Bron: KNMI website
Laatste update op 21-06-2018 om 12:31
ZCZC
FT210500 EHAM     AMSTERDAM/SCHIPHOL   NLD   -3 m.
TAF EHAM 210433Z 2106/2212 31020G30KT 9999 SCT020
    BECMG 2116/2119 31015KT
    BECMG 2200/2203 31018G28KT
    PROB30 TEMPO 2205/2210 7000 -RADZ -SHRA SCT025TCU BKN030=
ZCZC
FT210500 EHBK     MAASTRICHT/MAASTRICHT-AACHEN   NLD   114 m.
TAF EHBK 210457Z 2106/2212 27007KT 9999 BKN012
    TEMPO 2106/2108 7000 -RADZ BKN008
    BECMG 2106/2109 30013G25KT SCT030
    PROB30 TEMPO 2108/2111 6000 -SHRA FEW020TCU
    BECMG 2118/2121 30010KT
    BECMG 2121/2124 27007KT=
ZCZC
FT210500 EHGG     GRONINGEN/EELDE   NLD   5 m.
TAF EHGG 210452Z 2106/2212 30008KT 9999 SCT040
    BECMG 2107/2110 31019G35KT
    TEMPO 2107/2206 4000 SHRA SCT020CB
    BECMG 2118/2121 31015G25KT=
ZCZC
FT210500 EHRD     ROTTERDAM/THE HAGUE AIRPORT   NLD   -5 m.
TAF EHRD 210433Z 2106/2212 31020G30KT 9999 SCT020
    BECMG 2116/2119 31015KT
    BECMG 2200/2203 31018G28KT=
ZCZC
FT210500 EHEH     EINDHOVEN/EINDHOVEN   NLD   22 m.
TAF EHEH 210505Z 2106/2212 29008G18KT 9999 SCT010 OVC030
    BECMG 2107/2109 31015G27KT SCT020
    BECMG 2120/2122 28007KT
    BECMG 2204/2212 30012G22KT=
ZCZC
FC210900 EHGR     GILZE-RIJEN/GILZE-RIJEN   NLD   14 m.
TAF EHGR 210833Z 2109/2121 30015G25KT 9999 SCT030
    BECMG 2118/2121 30010KT=
ZCZC
FC210900 EHKD     DE KOOY/DE KOOY   NLD   1 m.
TAF EHKD 210828Z 2109/2121 30020G35KT 9999 FEW025 BKN030
    PROB40 TEMPO 2106/2121 FEW020CB=
ZCZC
FC210900 EHLW     LEEUWARDEN/LEEUWARDEN   NLD   1 m.
TAF EHLW 210832Z 2109/2121 29023G37KT 9999 FEW023 SCT033
    TEMPO 2106/2121 FEW020CB=
ZCZC
FC210900 EHVK     VOLKEL/VOLKEL   NLD   21 m.
TAF EHVK 210836Z 2109/2121 30015G25KT 9999 SCT020
    BECMG 2118/2121 30010KT=
ZCZC
FC210900 EHWO     WOENSDRECHT/WOENSDRECHT   NLD   19 m.
TAF EHWO 210829Z 2109/2121 31015G25KT 9999 SCT020
    TEMPO 2109/2117 32018G28KT=
Bron: KNMI website
Laatste update op 21-06-2018 om 12:31
ZCZC
SA210955 EHKD     DE KOOY/DE KOOY   NLD   1 m.
METAR EHKD 210955Z AUTO 30020KT 260V340 9999 SCT025 BKN029 BKN037
14/07 Q1018
BLU 30020G30KT 9999 SCT026 SCT045 TEMPO 31022G34KT FEW020CB SCT025=
ZCZC
SA210955 EHFD     F3-FB-1   NLD   50 m.
METAR EHFD 210955Z AUTO 32031KT 9999 FEW015/// SCT021/// BKN040///
12/07 Q1014 W///H///=
ZCZC
SA210955 EHAM     AMSTERDAM/SCHIPHOL   NLD   -3 m.
METAR EHAM 210955Z 30022KT 270V360 9999 FEW030 15/06 Q1020 NOSIG=
ZCZC
SA210955 EHVL     VLIELAND   NLD   10 m.
METAR EHVL 210955Z AUTO 30029KT 9999 SCT025 BKN031 BKN039 14/08 Q1017
 BLU=
ZCZC
SA210955 EHJR     K13-A   NLD   37 m.
METAR EHJR 210955Z AUTO 32029KT //// // ///////// 12/07 Q1020 RE//
W13/H30=
ZCZC
SA210955 EHLW     LEEUWARDEN/LEEUWARDEN   NLD   1 m.
METAR EHLW 210955Z AUTO 29022KT 260V330 9999 FEW030 SCT039 14/07
Q1016 RERA
BLU 30023G36KT 9999 BKN025 TEMPO 4900 SHRA FEW016 SCT020CB BKN025 RMK R23=
ZCZC
SA210955 EHDL     ARNHEM/DEELEN   NLD   48 m.
METAR EHDL 210955Z AUTO 31018G28KT 200V010 9999 SCT037 BKN044 BKN051
16/06 Q1018 BLU=
ZCZC
SA210955 EHGG     GRONINGEN/EELDE   NLD   5 m.
METAR EHGG 210955Z AUTO 28017G27KT 240V330 9999 FEW030CB 15/07 Q1015
TEMPO 7000 SHRA TSRA FEW020CB=
ZCZC
SA210955 EHSC     LICHTEILAND GOEREE   NLD   22 m.
METAR EHSC 210955Z AUTO 32027KT 9999 ///////// 12/06 Q1022 W16/H25=
ZCZC
SA210955 EHSA     EURO PLATFORM   NLD   19 m.
METAR EHSA 210955Z AUTO 31026KT //// // ///////// 13/07 Q1022 RE//
W14/H23=
ZCZC
SA210955 EHWO     WOENSDRECHT/WOENSDRECHT   NLD   19 m.
METAR EHWO 210955Z AUTO 31012G22KT 240V020 9999 FEW035 16/06 Q1021
BLU 31012G22KT 9999 SCT030 TEMPO 32015G29KT=
ZCZC
SA210955 EHRD     ROTTERDAM/THE HAGUE AIRPORT   NLD   -5 m.
METAR EHRD 210955Z AUTO 30017G28KT 260V360 9999 SCT030 BKN035 15/07
Q1021 NOSIG=
ZCZC
SA210955 EHGR     GILZE-RIJEN/GILZE-RIJEN   NLD   14 m.
METAR EHGR 210955Z AUTO 31016G26KT 250V340 9999 FEW037 SCT042 17/06
Q1020
BLU 30018G28KT 9999 SCT035=
ZCZC
SA210955 EHEH     EINDHOVEN/EINDHOVEN   NLD   22 m.
METAR EHEH 210955Z AUTO 30015KT 230V350 9999 SCT040 SCT050 17/06
Q1020
BLU 31015G27KT 9999 SCT025 SCT040=
ZCZC
SA210955 EHVK     VOLKEL/VOLKEL   NLD   21 m.
METAR EHVK 210955Z AUTO 29014G24KT 260V350 9999 FEW035 SCT040 16/07
Q1019
BLU 29015G25KT 9999 SCT030=
ZCZC
SA210955 EHBK     MAASTRICHT/MAASTRICHT-AACHEN   NLD   114 m.
METAR EHBK 210955Z AUTO 29013KT 240V350 9999 BKN037 17/07 Q1020
NOSIG=
ZCZC
SA210955 EHFZ     F16-A   NLD   43 m.
METAR EHFZ 210955Z AUTO 34026KT 9999 -RA FEW018 SCT027 BKN048 10/08
Q1017 W///H///=
ZCZC
SA210955 EHKV     K14-FA-1C   NLD   41 m.
METAR EHKV 210955Z AUTO 30029KT 250V330 9999 FEW021 SCT028 BKN040
11/07 Q1020 W///H///=
ZCZC
SA210955 EHMG     L9-FF-1   NLD   44 m.
METAR EHMG 210955Z AUTO 30033G43KT 9999 FEW022 12/07 Q1017 W///H///=
ZCZC
SA210955 EHMA     AWG-1   NLD   40 m.
METAR EHMA 210955Z AUTO 29035KT 9999 DZ FEW027 SCT042 13/06 Q1014
W///H///=
ZCZC
SA210955 EHDV     D15-FA-1   NLD   42 m.
METAR EHDV 210955Z AUTO 33035KT 9999 FEW020/// SCT025/// 12/07 Q1018
W///H///=
ZCZC
SA210955 EHAK     A12-CPP   NLD   48 m.
METAR EHAK 210955Z AUTO 35031KT 9999 FEW016/// SCT028/// 12/07 Q1015
W///H///=
ZCZC
SA210955 EHQE     HOORN-A   NLD   50 m.
METAR EHQE 210955Z AUTO 31033KT 9999 FEW022 SCT034 12/06 Q1018
W///H///=
ZCZC
SA210955 EHJA     J6-A   NLD   45 m.
METAR EHJA 210955Z AUTO 31035KT 9999 FEW020/// SCT035/// 12/07 Q1019
W///H///=
ZCZC
SA210955 EHPG     P11-B   NLD   41 m.
METAR EHPG 210955Z AUTO 29018KT 260V340 9999 -RADZ FEW025 SCT041
12/07 Q1021 W///H///=
ZCZC
SA210955 EHHW     BUITENGAATS/BG-OHVS2      42 m.
METAR EHHW 210955Z AUTO 32025KT //// // FEW024/// SCT030/// 13/06
Q1014 RE// W///H///=
ZCZC
SA210955 EHFS     VLISSINGEN AWS   NLD   8 m.
METAR EHFS 210955Z AUTO 32018KT 260V340 9999 SCT029/// BKN033///
BKN037/// 15/07 Q1022 W///H///=